Weather at Jagodë Cropduster Strip

Public forecast

Using degrees Celsius for public forecast. Weather courtesy of forecast.io.

Closest aviation weather report (METAR) to Jagodë Cropduster Strip

Closest report is Priština Adem Jashari International Airport, 23.9 nm (44.3 km) E. Retrieved 2022/07/01 01:00 UTC (7 minutes ago):

BKPR 010100Z 00000KT CAVOK 20/16 Q1016 NOSIG

Closest aviation forecast (TAF) to Jagodë Cropduster Strip

Closest forecast is Priština Adem Jashari International Airport, 23.9 nm (44.3 km) E. Retrieved 2022-07-01 00:30 UTC (37 minutes ago):

TAF BKPR 302330Z 0100/0124 VRB03KT CAVOK PROB30 TEMPO 0110/0116 5000 -TSRA FEW030CB